Patterson Heights, Pennsylvania
Current Conditions -  °F | °C
As of 8:47 PM on Thursday 30 Oct 2014 (Local Time) from KBVI Reporting Station
Overcast Overcast  
Wind Chill:   Ceiling: 4300
Heat Index:   Visibility: 10mi
Dew Point:   Wind: 3mph
Humidity: 71%   Direction: 250°WSW
Pressure: 30.05"   Gusts: NA
Location:  40.7641°N, 80.3864°W
Report Text: KBVI 310047Z 25003KT 10SM OVC043 08/03 A3005 RMK LAST
Loading
Personal Weather Stations






























Interactive Weather Map
Tropical Storm Tracking
New forecast layout! Learn more

10-Day Weather Forecast

Advertisements
Track Severe Weather on mobile